Cando, ND

9:19 PM CST on February 12, 2016 (GMT -0600)
Cando

Weather History for K9D7 - January, 2014

Change the Weather History Date:

Monday, January 6, 2014

  Actual Average (KDVL) Record (KDVL)
Temperature  
Mean Temperature -18 °F -  
Max Temperature -9 °F 13 °F 41 °F (1984)
Min Temperature -27 °F -3 °F -30 °F (1968)
Degree Days  
Heating Degree Days 83    
Moisture  
Dew Point -26 °F    
Average Humidity 70    
Maximum Humidity 77    
Minimum Humidity 63    
Precipitation  
Precipitation 0.00 in - - ()
Sea Level Pressure  
Sea Level Pressure 30.20 in    
Wind  
Wind Speed 15 mph (WNW)    
Max Wind Speed 20 mph    
Max Gust Speed 24 mph    
Visibility 10 miles    
Events      
Averages and records for this station are not official NWS values.
T = Trace of Precipitation, MM = Missing Value Source: NWS Daily Summary

Daily Weather History Graph

Daily Weather History Graph

Search for Another Location

Airport or City:

Trip Planner

Search our weather history database for the weather conditions in past years. The results will help you decide how hot, cold, wet, or windy it might be!

Date:

Astronomy

Jan. 06, 2014 Rise Set
Actual Time 8:28 AM CST 4:58 PM CST
Civil Twilight 7:51 AM CST 5:34 PM CST
Nautical Twilight 7:12 AM CST 6:13 PM CST
Astronomical Twilight 6:34 AM CST 6:51 PM CST
Moon 11:12 AM CST (1/6) No Moon Set
Length of Visible Light 9h 42m
Length of Day
8h 30m
Waxing Crescent, 35% of the Moon is Illuminated
Jan 6
Waxing Crescent
Jan 7
First Quarter
Jan 15
Full
Jan 23
Last Quarter
Jan 30
New

Hourly Weather History & Observations

Time (CST) Temp. Windchill Dew Point Humidity Pressure Visibility Wind Dir Wind Speed Gust Speed Precip Events Conditions
12:15 AM -25.6 °F -50.2 °F -31.0 °F 76% 30.37 in 10.0 mi WNW 12.7 mph - N/A   Overcast
12:35 AM -25.6 °F -51.2 °F -31.0 °F 76% 30.35 in 10.0 mi WNW 13.8 mph - N/A   Overcast
12:55 AM -25.6 °F -51.2 °F -31.0 °F 76% 30.35 in 10.0 mi WNW 13.8 mph - N/A   Overcast
1:15 AM -25.6 °F -52.1 °F -32.8 °F 69% 30.34 in 10.0 mi WNW 15.0 mph - N/A   Overcast
1:35 AM -25.6 °F -51.2 °F -32.8 °F 69% 30.34 in 10.0 mi NW 13.8 mph - N/A   Overcast
1:55 AM -25.6 °F -51.2 °F -32.8 °F 69% 30.34 in 10.0 mi WNW 13.8 mph - N/A   Overcast
2:15 AM -25.6 °F -50.2 °F -32.8 °F 69% 30.33 in 10.0 mi WNW 12.7 mph - N/A   Mostly Cloudy
2:35 AM -25.6 °F -51.2 °F -32.8 °F 69% 30.33 in 10.0 mi WNW 13.8 mph - N/A   Partly Cloudy
2:55 AM -25.6 °F -52.1 °F -32.8 °F 69% 30.34 in 10.0 mi WNW 15.0 mph - N/A   Clear
3:15 AM -25.6 °F -52.1 °F -32.8 °F 69% 30.33 in 10.0 mi WNW 15.0 mph - N/A   Clear
3:35 AM -25.6 °F -51.2 °F -34.6 °F 63% 30.33 in 10.0 mi WNW 13.8 mph - N/A   Partly Cloudy
3:55 AM -25.6 °F -53.0 °F -34.6 °F 63% 30.33 in 10.0 mi WNW 16.1 mph 19.6 mph N/A   Clear
4:15 AM -27.4 °F -55.3 °F -34.6 °F 69% 30.32 in 10.0 mi WNW 16.1 mph - N/A   Clear
4:35 AM -27.4 °F -53.5 °F -34.6 °F 69% 30.32 in 10.0 mi West 13.8 mph - N/A   Clear
4:55 AM -27.4 °F -53.5 °F -34.6 °F 69% 30.32 in 10.0 mi WNW 13.8 mph - N/A   Clear
5:15 AM -27.4 °F -55.3 °F -34.6 °F 69% 30.31 in 10.0 mi WNW 16.1 mph - N/A   Clear
5:35 AM -27.4 °F -54.5 °F -34.6 °F 69% 30.30 in 10.0 mi WNW 15.0 mph - N/A   Clear
5:55 AM -27.4 °F -52.5 °F -34.6 °F 69% 30.30 in 10.0 mi WNW 12.7 mph - N/A   Clear
6:15 AM -27.4 °F -52.5 °F -34.6 °F 69% 30.29 in 10.0 mi WNW 12.7 mph - N/A   Clear
6:35 AM -27.4 °F -53.5 °F -34.6 °F 69% 30.29 in 10.0 mi West 13.8 mph - N/A   Clear
6:55 AM -27.4 °F -51.4 °F -34.6 °F 69% 30.29 in 10.0 mi West 11.5 mph - N/A   Clear
7:15 AM -27.4 °F -50.3 °F -34.6 °F 69% 30.28 in 10.0 mi WNW 10.4 mph - N/A   Clear
7:35 AM -27.4 °F -50.3 °F -34.6 °F 69% 30.28 in 10.0 mi West 10.4 mph 16.1 mph N/A   Clear
7:55 AM -27.4 °F -57.7 °F -34.6 °F 69% 30.26 in 10.0 mi West 19.6 mph - N/A   Clear
8:15 AM -27.4 °F -55.3 °F -32.8 °F 75% 30.27 in 10.0 mi WNW 16.1 mph - N/A   Clear
8:35 AM -25.6 °F -54.6 °F -32.8 °F 69% 30.26 in 10.0 mi West 18.4 mph - N/A   Clear
8:55 AM -25.6 °F -49.2 °F -32.8 °F 69% 30.26 in 10.0 mi WNW 11.5 mph 18.4 mph N/A   Clear
9:15 AM -25.6 °F -52.1 °F -32.8 °F 69% 30.25 in 10.0 mi West 15.0 mph - N/A   Clear
9:35 AM -25.6 °F -54.6 °F -31.0 °F 76% 30.25 in 10.0 mi WNW 18.4 mph - N/A   Clear
9:55 AM -23.8 °F -49.8 °F -31.0 °F 69% 30.25 in 10.0 mi WNW 15.0 mph - N/A   Clear
10:15 AM -22.0 °F -49.9 °F -29.2 °F 69% 30.26 in 10.0 mi WNW 18.4 mph - N/A   Clear
10:35 AM -22.0 °F -49.1 °F -29.2 °F 69% 30.25 in 10.0 mi WNW 17.3 mph - N/A   Clear
10:55 AM -22.0 °F -48.4 °F -29.2 °F 69% 30.24 in 10.0 mi WNW 16.1 mph - N/A   Partly Cloudy
11:15 AM -20.2 °F -48.2 °F -29.2 °F 63% 30.23 in 10.0 mi WNW 19.6 mph - N/A   Mostly Cloudy
11:35 AM -18.4 °F -40.2 °F -27.4 °F 63% 30.23 in 10.0 mi WNW 11.5 mph - N/A   Mostly Cloudy
11:55 AM -18.4 °F -42.1 °F -25.6 °F 70% 30.22 in 10.0 mi NW 13.8 mph 18.4 mph N/A   Overcast
12:15 PM -16.6 °F -40.6 °F -25.6 °F 64% 30.21 in 10.0 mi NW 15.0 mph - N/A   Scattered Clouds
12:35 PM -16.6 °F -38.9 °F -25.6 °F 64% 30.21 in 10.0 mi NW 12.7 mph - N/A   Mostly Cloudy
12:55 PM -16.6 °F -39.8 °F -25.6 °F 64% 30.20 in 10.0 mi NW 13.8 mph 19.6 mph N/A   Overcast
1:15 PM -16.6 °F -41.4 °F -22.0 °F 76% 30.19 in 10.0 mi NW 16.1 mph - N/A   Overcast
1:35 PM -14.8 °F -38.3 °F -22.0 °F 70% 30.19 in 10.0 mi WNW 15.0 mph - N/A   Overcast
1:55 PM -13.0 °F -34.3 °F -22.0 °F 64% 30.17 in 10.0 mi WNW 12.7 mph - N/A   Overcast
2:15 PM -13.0 °F -35.2 °F -20.2 °F 70% 30.16 in 10.0 mi WNW 13.8 mph - N/A   Overcast
2:35 PM -13.0 °F -36.0 °F -20.2 °F 70% 30.16 in 10.0 mi WNW 15.0 mph - N/A   Overcast
2:55 PM -13.0 °F -38.8 °F -20.2 °F 70% 30.16 in 10.0 mi WNW 19.6 mph - N/A   Overcast
3:15 PM -13.0 °F -38.2 °F -20.2 °F 70% 30.17 in 10.0 mi WNW 18.4 mph - N/A   Overcast
3:35 PM -13.0 °F -38.2 °F -20.2 °F 70% 30.16 in 10.0 mi West 18.4 mph - N/A   Overcast
3:55 PM -13.0 °F -38.2 °F -20.2 °F 70% 30.15 in 10.0 mi WNW 18.4 mph 24.2 mph N/A   Overcast
4:15 PM -13.0 °F -37.5 °F -20.2 °F 70% 30.15 in 10.0 mi WNW 17.3 mph 20.7 mph N/A   Overcast
4:35 PM -13.0 °F -36.0 °F -20.2 °F 70% 30.14 in 10.0 mi WNW 15.0 mph - N/A   Overcast
4:55 PM -13.0 °F -38.2 °F -20.2 °F 70% 30.13 in 10.0 mi WNW 18.4 mph - N/A   Overcast
5:15 PM -13.0 °F -36.0 °F -20.2 °F 70% 30.13 in 10.0 mi WNW 15.0 mph - N/A   Overcast
5:35 PM -13.0 °F -36.0 °F -20.2 °F 70% 30.13 in 10.0 mi West 15.0 mph - N/A   Overcast
5:55 PM -13.0 °F -38.2 °F -20.2 °F 70% 30.11 in 10.0 mi WNW 18.4 mph 21.9 mph N/A   Overcast
6:15 PM -13.0 °F -38.2 °F -20.2 °F 70% 30.09 in 10.0 mi WNW 18.4 mph - N/A   Mostly Cloudy
6:35 PM -13.0 °F -37.5 °F -20.2 °F 70% 30.08 in 10.0 mi WNW 17.3 mph - N/A   Clear
6:55 PM -13.0 °F -38.8 °F -18.4 °F 77% 30.10 in 10.0 mi West 19.6 mph - N/A   Clear
7:15 PM -13.0 °F -36.8 °F -18.4 °F 77% 30.09 in 10.0 mi West 16.1 mph - N/A   Mostly Cloudy
7:35 PM -11.2 °F -34.4 °F -18.4 °F 70% 30.08 in 10.0 mi West 16.1 mph - N/A   Scattered Clouds
7:55 PM -11.2 °F -35.2 °F -18.4 °F 70% 30.08 in 10.0 mi West 17.3 mph - N/A   Mostly Cloudy
8:15 PM -11.2 °F -35.2 °F -18.4 °F 70% 30.07 in 10.0 mi West 17.3 mph - N/A   Mostly Cloudy
8:35 PM -11.2 °F -36.4 °F -18.4 °F 70% 30.06 in 10.0 mi WNW 19.6 mph 24.2 mph N/A   Overcast
8:55 PM -11.2 °F -35.8 °F -18.4 °F 70% 30.05 in 10.0 mi West 18.4 mph 23.0 mph N/A   Overcast
9:15 PM -11.2 °F -34.4 °F -16.6 °F 77% 30.05 in 10.0 mi West 16.1 mph - N/A   Overcast
9:35 PM -9.4 °F -32.1 °F -16.6 °F 71% 30.03 in 10.0 mi West 16.1 mph - N/A   Overcast
9:55 PM -9.4 °F -31.4 °F -16.6 °F 71% 30.02 in 10.0 mi West 15.0 mph - N/A   Overcast
10:15 PM -11.2 °F -33.7 °F -16.6 °F 77% 30.00 in 10.0 mi West 15.0 mph - N/A   Overcast
10:35 PM -9.4 °F -32.1 °F -16.6 °F 71% 30.01 in 10.0 mi West 16.1 mph - N/A   Overcast
10:55 PM -9.4 °F -32.8 °F -16.6 °F 71% 30.00 in 10.0 mi West 17.3 mph - N/A   Overcast
11:15 PM -9.4 °F -32.8 °F -16.6 °F 71% 29.99 in 10.0 mi West 17.3 mph - N/A   Overcast
11:35 PM -9.4 °F -32.1 °F -14.8 °F 77% 29.98 in 10.0 mi WNW 16.1 mph - N/A   Overcast
11:55 PM -9.4 °F -29.8 °F -14.8 °F 77% 29.98 in 10.0 mi WNW 12.7 mph - N/A   Overcast